Time;durP1;ratioP1;P1;durP2;ratioP2;P2;SDS_P1;SDS_P2;PMS_P1;PMS_P2;Temp;Humidity;BMP_temperature;BMP_pressure;BME280_temperature;BME280_humidity;BME280_pressure;Samples;Min_cycle;Max_cycle;Signal;HPM_P1;HPM_P2
2023/12/29 00:01:16;;;;;;;1.35;0.13;;;10.90;99.90;;;;;;4990076;28;20062;-74
2023/12/29 00:03:42;;;;;;;0.85;0.20;;;10.90;99.90;;;;;;4993192;28;20088;-74
2023/12/29 00:06:08;;;;;;;1.75;0.10;;;10.90;99.90;;;;;;4988205;28;20078;-74
2023/12/29 00:08:33;;;;;;;0.35;0.28;;;10.90;99.90;;;;;;4992567;28;20073;-74
2023/12/29 00:10:59;;;;;;;0.30;0.10;;;10.90;99.90;;;;;;4991389;28;20046;-74
2023/12/29 00:13:25;;;;;;;1.40;0.20;;;10.90;99.90;;;;;;4989482;28;20150;-74
2023/12/29 00:15:56;;;;;;;1.23;0.43;;;10.90;99.90;;;;;;4992361;28;20113;-74
2023/12/29 00:18:21;;;;;;;5.18;1.00;;;10.90;99.90;;;;;;4990705;28;20038;-75
2023/12/29 00:20:49;;;;;;;0.93;0.20;;;10.90;99.90;;;;;;4975893;28;20092;-74
2023/12/29 00:23:15;;;;;;;0.15;0.10;;;10.90;99.90;;;;;;4991377;28;20132;-74
2023/12/29 00:25:41;;;;;;;4.32;0.20;;;10.90;99.90;;;;;;4991625;28;20121;-74
2023/12/29 00:28:06;;;;;;;1.80;0.50;;;10.90;99.90;;;;;;4991323;28;20085;-74
2023/12/29 00:30:32;;;;;;;7.38;0.30;;;10.90;99.90;;;;;;4987227;28;20128;-74
2023/12/29 00:32:58;;;;;;;2.00;0.20;;;10.80;99.90;;;;;;4981739;28;20125;-74
2023/12/29 00:35:24;;;;;;;0.75;0.30;;;10.80;99.90;;;;;;4989558;28;20039;-75
2023/12/29 00:37:52;;;;;;;0.35;0.20;;;10.70;99.90;;;;;;4985713;28;20359;-75
2023/12/29 00:40:18;;;;;;;3.22;0.47;;;10.60;99.90;;;;;;4987505;28;20073;-75
2023/12/29 00:42:44;;;;;;;0.70;0.20;;;10.60;99.90;;;;;;4986631;28;20077;-75
2023/12/29 00:45:10;;;;;;;6.13;0.52;;;10.50;99.90;;;;;;4986288;28;20077;-75
2023/12/29 00:47:35;;;;;;;5.05;0.57;;;10.50;99.90;;;;;;4989285;28;20058;-75
2023/12/29 00:50:01;;;;;;;1.42;0.32;;;10.40;99.90;;;;;;4986824;28;20050;-74
2023/12/29 00:52:27;;;;;;;4.20;0.30;;;10.40;99.90;;;;;;4979013;28;20518;-74
2023/12/29 00:54:53;;;;;;;0.20;0.10;;;10.30;99.90;;;;;;4986839;28;20042;-74
2023/12/29 00:57:19;;;;;;;0.15;0.10;;;10.30;99.90;;;;;;4986323;28;20132;-74
2023/12/29 00:59:47;;;;;;;3.15;0.57;;;10.30;99.90;;;;;;4971834;28;20387;-74
2023/12/29 01:02:12;;;;;;;4.43;0.82;;;10.30;99.90;;;;;;4981504;28;20039;-75
2023/12/29 01:04:41;;;;;;;4.93;0.88;;;10.30;99.90;;;;;;4986991;28;20046;-74
2023/12/29 01:07:07;;;;;;;9.93;0.77;;;10.20;99.90;;;;;;4987357;28;20582;-75
2023/12/29 01:09:39;;;;;;;3.50;0.45;;;10.30;99.90;;;;;;4986467;28;20121;-74
2023/12/29 01:12:04;;;;;;;7.90;1.33;;;10.30;99.90;;;;;;4963096;28;20125;-74
2023/12/29 01:14:30;;;;;;;2.95;0.22;;;10.20;99.90;;;;;;4968429;28;20566;-75
2023/12/29 01:16:56;;;;;;;0.90;0.77;;;10.30;99.90;;;;;;4971208;28;20048;-74
2023/12/29 01:19:22;;;;;;;1.80;0.20;;;10.30;99.90;;;;;;4968933;28;20057;-75
2023/12/29 01:21:47;;;;;;;2.35;0.43;;;10.20;99.90;;;;;;4986267;28;20042;-73
2023/12/29 01:24:13;;;;;;;1.80;0.73;;;10.30;99.90;;;;;;4987048;28;20514;-73
2023/12/29 01:26:39;;;;;;;5.35;0.40;;;10.20;99.90;;;;;;4989311;28;20049;-73
2023/12/29 01:29:06;;;;;;;5.05;0.45;;;10.20;99.90;;;;;;4985257;28;20050;-74
2023/12/29 01:31:32;;;;;;;1.85;0.30;;;10.20;99.90;;;;;;4984998;28;20137;-73
2023/12/29 01:33:58;;;;;;;8.00;0.68;;;10.20;99.90;;;;;;4987993;28;20039;-74
2023/12/29 01:36:24;;;;;;;1.10;0.50;;;10.20;99.90;;;;;;4987322;28;20109;-74
2023/12/29 01:38:49;;;;;;;3.05;0.35;;;10.20;99.90;;;;;;4986678;28;20125;-73
2023/12/29 01:41:15;;;;;;;5.40;0.82;;;10.20;99.90;;;;;;4987893;28;20034;-73
2023/12/29 01:43:56;;;;;;;1.15;0.43;;;10.20;99.90;;;;;;4989304;28;20045;-73
2023/12/29 01:46:24;;;;;;;0.75;0.32;;;10.20;99.90;;;;;;4987984;28;20400;-74
2023/12/29 01:48:49;;;;;;;3.28;0.40;;;10.30;99.90;;;;;;4986343;28;20075;-73
2023/12/29 01:51:17;;;;;;;2.25;0.80;;;10.20;99.90;;;;;;4986318;28;20092;-73
2023/12/29 01:53:43;;;;;;;5.32;0.30;;;10.30;99.90;;;;;;4988835;28;20057;-72
2023/12/29 01:56:09;;;;;;;2.90;0.20;;;10.30;99.90;;;;;;4987091;28;20509;-72
2023/12/29 01:58:35;;;;;;;0.00;0.00;;;10.30;99.90;;;;;;4985706;28;20046;-72
2023/12/29 02:01:03;;;;;;;0.20;0.20;;;10.30;99.90;;;;;;4986657;28;20042;-72
2023/12/29 02:03:28;;;;;;;6.35;0.43;;;10.30;99.90;;;;;;4989172;28;20038;-73
2023/12/29 02:05:58;;;;;;;0.80;0.47;;;10.40;99.90;;;;;;4985052;28;20069;-73
2023/12/29 02:08:24;;;;;;;0.73;0.13;;;10.40;99.90;;;;;;4983779;28;20054;-73
2023/12/29 02:10:50;;;;;;;2.80;0.40;;;10.40;99.90;;;;;;4983462;28;20042;-74
2023/12/29 02:13:15;;;;;;;2.20;0.45;;;10.40;99.90;;;;;;4986067;28;20072;-74
2023/12/29 02:15:41;;;;;;;7.63;0.35;;;10.40;99.90;;;;;;4982961;28;20035;-74
2023/12/29 02:18:14;;;;;;;1.48;0.30;;;10.40;99.90;;;;;;4968236;28;20034;-74
2023/12/29 02:20:41;;;;;;;2.15;0.63;;;10.40;99.90;;;;;;4985795;28;20042;-74
2023/12/29 02:23:07;;;;;;;2.47;0.28;;;10.50;99.90;;;;;;4982236;28;20510;-73
2023/12/29 02:25:34;;;;;;;5.20;0.38;;;10.50;99.90;;;;;;4984044;28;20042;-73
2023/12/29 02:28:10;;;;;;;0.85;0.40;;;10.50;99.90;;;;;;4987499;28;20050;-74
2023/12/29 02:30:58;;;;;;;2.47;0.40;;;10.50;99.90;;;;;;4984761;28;20038;-73
2023/12/29 02:33:25;;;;;;;4.60;1.10;;;10.50;99.90;;;;;;4981419;28;20053;-74
2023/12/29 02:35:55;;;;;;;0.30;0.15;;;10.60;99.90;;;;;;4979372;28;20774;-73
2023/12/29 02:38:21;;;;;;;0.52;0.13;;;10.60;99.90;;;;;;4986864;28;20104;-75
2023/12/29 02:40:46;;;;;;;3.42;1.05;;;10.50;99.90;;;;;;4985115;28;20490;-79
2023/12/29 02:43:12;;;;;;;3.95;0.63;;;10.50;99.90;;;;;;4970168;28;20094;-78
2023/12/29 02:45:38;;;;;;;4.85;0.40;;;10.50;99.90;;;;;;4987030;28;20096;-77
2023/12/29 02:48:04;;;;;;;3.88;0.50;;;10.40;99.90;;;;;;4986780;28;20538;-77
2023/12/29 02:50:30;;;;;;;1.13;0.63;;;10.40;99.90;;;;;;4970976;28;20038;-76
2023/12/29 02:52:55;;;;;;;0.50;0.50;;;10.40;99.90;;;;;;4970442;28;20058;-77
2023/12/29 02:55:21;;;;;;;0.52;0.30;;;10.40;99.90;;;;;;4984127;28;20402;-76
2023/12/29 02:57:48;;;;;;;3.42;0.52;;;10.40;99.90;;;;;;4986104;28;20042;-75
2023/12/29 03:00:14;;;;;;;2.72;0.80;;;10.50;99.90;;;;;;4971629;28;20038;-75
2023/12/29 03:02:40;;;;;;;6.13;0.60;;;10.50;99.90;;;;;;4984777;28;20054;-73
2023/12/29 03:05:06;;;;;;;3.40;0.52;;;10.50;99.90;;;;;;4986427;28;20046;-74
2023/12/29 03:07:32;;;;;;;0.40;0.30;;;10.50;99.90;;;;;;4984916;28;20442;-75
2023/12/29 03:09:58;;;;;;;4.20;0.60;;;10.40;99.90;;;;;;4987044;28;20046;-74
2023/12/29 03:12:23;;;;;;;2.03;0.50;;;10.40;99.90;;;;;;4985810;28;22005;-75
2023/12/29 03:14:49;;;;;;;0.20;0.20;;;10.40;99.90;;;;;;4987823;28;20142;-73
2023/12/29 03:17:15;;;;;;;2.60;0.43;;;10.40;99.90;;;;;;4973841;28;20039;-75
2023/12/29 03:19:40;;;;;;;4.20;0.30;;;10.40;99.90;;;;;;4971334;28;20038;-74
2023/12/29 03:22:06;;;;;;;0.70;0.13;;;10.40;99.90;;;;;;4984604;28;20132;-74
2023/12/29 03:24:32;;;;;;;3.53;0.75;;;10.40;99.90;;;;;;4986655;28;20042;-74
2023/12/29 03:26:57;;;;;;;0.52;0.25;;;10.40;99.90;;;;;;4970059;28;20353;-74
2023/12/29 03:29:23;;;;;;;7.65;2.05;;;10.40;99.90;;;;;;4981937;28;20545;-74
2023/12/29 03:31:49;;;;;;;4.07;0.50;;;10.40;99.90;;;;;;4985714;28;20095;-73
2023/12/29 03:34:14;;;;;;;0.35;0.25;;;10.40;99.90;;;;;;4967127;28;20468;-75
2023/12/29 03:36:40;;;;;;;8.30;0.75;;;10.40;99.90;;;;;;4965071;28;20034;-74
2023/12/29 03:39:06;;;;;;;0.28;0.15;;;10.40;99.90;;;;;;4987259;28;20049;-73
2023/12/29 03:41:32;;;;;;;2.72;0.30;;;10.40;99.90;;;;;;4983456;28;20490;-73
2023/12/29 03:43:59;;;;;;;1.35;0.50;;;10.40;99.90;;;;;;4983433;28;20050;-74
2023/12/29 03:46:25;;;;;;;0.50;0.40;;;10.40;99.90;;;;;;4986680;28;20046;-74
2023/12/29 03:48:51;;;;;;;3.65;0.43;;;10.40;99.90;;;;;;4987215;28;20042;-74
2023/12/29 03:51:18;;;;;;;1.10;0.28;;;10.30;99.90;;;;;;4983633;28;20106;-74
2023/12/29 03:53:44;;;;;;;6.45;0.90;;;10.30;99.90;;;;;;4984027;28;20121;-73
2023/12/29 03:56:14;;;;;;;0.52;0.15;;;10.30;99.90;;;;;;4985609;28;20031;-73
2023/12/29 03:58:40;;;;;;;1.02;0.08;;;10.30;99.90;;;;;;4982650;28;20561;-73
2023/12/29 04:01:10;;;;;;;0.68;0.13;;;10.30;99.90;;;;;;4982952;28;20038;-74
2023/12/29 04:03:37;;;;;;;0.13;0.10;;;10.20;99.90;;;;;;4985122;28;20097;-74
2023/12/29 04:06:03;;;;;;;4.68;0.30;;;10.30;99.90;;;;;;4969695;28;20066;-73
2023/12/29 04:08:28;;;;;;;2.60;0.70;;;10.30;99.90;;;;;;4975117;28;20082;-73
2023/12/29 04:10:54;;;;;;;11.25;1.05;;;10.20;99.90;;;;;;4982946;28;20043;-73
2023/12/29 04:13:20;;;;;;;0.90;0.20;;;10.20;99.90;;;;;;4990483;28;20186;-73
2023/12/29 04:15:45;;;;;;;1.10;0.52;;;10.20;99.90;;;;;;4983787;28;20447;-73
2023/12/29 04:18:11;;;;;;;4.30;0.28;;;10.20;99.90;;;;;;4987744;28;20085;-73
2023/12/29 04:20:37;;;;;;;1.30;0.63;;;10.20;99.90;;;;;;4972385;28;20397;-73
2023/12/29 04:23:03;;;;;;;1.75;0.30;;;10.20;99.90;;;;;;4989077;28;20109;-73
2023/12/29 04:25:29;;;;;;;0.57;0.25;;;10.20;99.90;;;;;;4987826;28;20049;-74
2023/12/29 04:27:55;;;;;;;2.03;1.05;;;10.10;99.90;;;;;;4988341;28;20038;-73
2023/12/29 04:30:20;;;;;;;3.45;0.45;;;10.20;99.90;;;;;;4988832;28;20065;-73
2023/12/29 04:32:46;;;;;;;3.50;0.63;;;10.20;99.90;;;;;;4988869;28;20046;-74
2023/12/29 04:35:14;;;;;;;2.90;0.60;;;10.10;99.90;;;;;;4989208;28;20495;-74
2023/12/29 04:37:41;;;;;;;3.22;0.77;;;10.10;99.90;;;;;;4986011;28;20399;-72
2023/12/29 04:40:07;;;;;;;5.20;0.55;;;10.10;99.90;;;;;;4989284;28;20038;-73
2023/12/29 04:42:33;;;;;;;2.95;0.35;;;10.10;99.90;;;;;;4985302;28;20905;-73
2023/12/29 04:44:59;;;;;;;2.08;0.15;;;10.10;99.90;;;;;;4988883;28;20045;-73
2023/12/29 04:47:24;;;;;;;3.47;0.85;;;10.10;99.90;;;;;;4973506;28;20131;-73
2023/12/29 04:49:50;;;;;;;7.32;0.50;;;10.10;99.90;;;;;;4990185;28;20124;-73
2023/12/29 04:52:16;;;;;;;4.88;0.82;;;10.10;99.90;;;;;;4985663;28;20099;-73
2023/12/29 04:54:41;;;;;;;1.45;0.80;;;10.10;99.90;;;;;;4989475;28;20042;-73
2023/12/29 04:57:07;;;;;;;3.20;0.43;;;10.10;99.90;;;;;;4973271;28;20505;-72
2023/12/29 04:59:33;;;;;;;1.33;0.17;;;10.10;99.90;;;;;;4970299;28;20038;-73
2023/12/29 05:01:58;;;;;;;0.90;0.20;;;10.10;99.90;;;;;;4986224;28;20130;-73
2023/12/29 05:04:24;;;;;;;9.45;0.82;;;10.10;99.90;;;;;;4986890;28;20038;-73
2023/12/29 05:06:50;;;;;;;2.20;0.63;;;10.10;99.90;;;;;;4970424;28;20173;-73
2023/12/29 05:09:15;;;;;;;4.85;0.90;;;10.10;99.90;;;;;;4988676;28;20053;-73
2023/12/29 05:11:41;;;;;;;7.15;0.85;;;10.10;99.90;;;;;;4988778;28;20112;-73
2023/12/29 05:14:07;;;;;;;9.65;1.20;;;10.10;99.90;;;;;;4986412;28;20044;-73
2023/12/29 05:16:32;;;;;;;1.33;0.60;;;10.20;99.90;;;;;;4987247;28;20517;-73
2023/12/29 05:18:58;;;;;;;0.55;0.28;;;10.10;99.90;;;;;;4984299;28;20038;-73
2023/12/29 05:21:25;;;;;;;2.85;0.85;;;10.20;99.90;;;;;;4986095;28;20481;-73
2023/12/29 05:23:51;;;;;;;4.22;0.95;;;10.20;99.90;;;;;;4984465;28;20046;-73
2023/12/29 05:26:17;;;;;;;6.32;0.57;;;10.30;99.90;;;;;;4983222;28;20411;-73
2023/12/29 05:28:43;;;;;;;1.80;0.40;;;10.20;99.90;;;;;;4987169;28;20077;-73
2023/12/29 05:31:09;;;;;;;6.60;0.60;;;10.20;99.90;;;;;;4988278;28;20073;-73
2023/12/29 05:33:35;;;;;;;3.65;0.47;;;10.30;99.90;;;;;;4987867;28;20046;-73
2023/12/29 05:36:09;;;;;;;3.88;0.22;;;10.30;99.90;;;;;;4984484;28;20141;-73
2023/12/29 05:38:35;;;;;;;1.35;0.10;;;10.30;99.90;;;;;;4984865;28;20077;-73
2023/12/29 05:41:03;;;;;;;8.57;0.88;;;10.30;99.90;;;;;;4970463;28;20399;-73
2023/12/29 05:43:30;;;;;;;2.53;0.63;;;10.30;99.90;;;;;;4983555;28;20125;-72
2023/12/29 05:45:56;;;;;;;3.15;0.22;;;10.30;99.90;;;;;;4986020;28;20053;-73
2023/12/29 05:48:22;;;;;;;8.15;0.88;;;10.30;99.90;;;;;;4966230;28;20038;-73
2023/12/29 05:50:47;;;;;;;13.90;0.95;;;10.30;99.90;;;;;;4971027;28;20056;-72
2023/12/29 05:53:15;;;;;;;2.63;0.60;;;10.30;99.90;;;;;;4983980;28;20150;-73
2023/12/29 05:55:40;;;;;;;5.90;1.02;;;10.20;99.90;;;;;;4969859;28;20070;-72
2023/12/29 05:58:06;;;;;;;1.50;0.73;;;10.20;99.90;;;;;;4986364;28;20081;-73
2023/12/29 06:00:32;;;;;;;2.97;0.80;;;10.20;99.90;;;;;;4986540;28;20045;-72
2023/12/29 06:02:58;;;;;;;1.67;0.20;;;10.20;99.90;;;;;;4985024;28;20063;-72
2023/12/29 06:05:23;;;;;;;4.00;0.30;;;10.20;99.90;;;;;;4984292;28;20038;-73
2023/12/29 06:07:49;;;;;;;5.38;0.77;;;10.20;99.90;;;;;;4984556;28;20624;-72
2023/12/29 06:10:15;;;;;;;3.05;0.85;;;10.10;99.90;;;;;;4986024;28;20053;-73
2023/12/29 06:12:41;;;;;;;4.13;1.38;;;10.10;99.90;;;;;;4984295;28;20038;-72
2023/12/29 06:15:07;;;;;;;8.77;1.67;;;10.10;99.90;;;;;;4982609;28;20046;-73
2023/12/29 06:17:33;;;;;;;3.13;0.30;;;10.10;99.90;;;;;;4986223;28;20042;-72
2023/12/29 06:19:58;;;;;;;2.53;0.52;;;10.10;99.90;;;;;;4971413;28;20359;-73
2023/12/29 06:22:27;;;;;;;6.78;0.50;;;10.10;99.90;;;;;;4985786;28;20042;-73
2023/12/29 06:24:52;;;;;;;4.28;0.25;;;10.20;99.90;;;;;;4984298;28;20118;-73
2023/12/29 06:27:18;;;;;;;10.00;0.70;;;10.20;99.90;;;;;;4988291;28;20113;-73
2023/12/29 06:29:44;;;;;;;5.05;0.57;;;10.10;99.90;;;;;;4982829;28;20081;-72
2023/12/29 06:32:10;;;;;;;2.03;0.60;;;10.20;99.90;;;;;;4986699;28;20034;-73
2023/12/29 06:34:35;;;;;;;3.45;0.63;;;10.10;99.90;;;;;;4986412;28;20554;-73
2023/12/29 06:37:01;;;;;;;16.15;2.10;;;10.20;99.90;;;;;;4984896;28;20533;-73
2023/12/29 06:39:27;;;;;;;8.55;0.55;;;10.20;99.90;;;;;;4986766;28;20030;-72
2023/12/29 06:41:52;;;;;;;11.55;1.48;;;10.20;99.90;;;;;;4985835;28;20109;-73
2023/12/29 06:44:18;;;;;;;6.25;2.15;;;10.20;99.90;;;;;;4970357;28;20042;-72
2023/12/29 06:46:44;;;;;;;1.92;0.47;;;10.10;99.90;;;;;;4968807;28;20451;-73
2023/12/29 06:49:09;;;;;;;4.95;1.30;;;10.20;99.90;;;;;;4983937;28;20081;-72
2023/12/29 06:51:35;;;;;;;2.63;0.47;;;10.10;99.90;;;;;;4983643;28;20034;-73
2023/12/29 06:54:01;;;;;;;3.20;0.35;;;10.10;99.90;;;;;;4985865;28;20054;-73
2023/12/29 06:56:27;;;;;;;1.58;0.38;;;10.10;99.90;;;;;;4986418;28;20099;-73
2023/12/29 06:58:53;;;;;;;3.75;1.15;;;10.10;99.90;;;;;;4986030;28;20042;-73
2023/12/29 07:01:19;;;;;;;7.05;1.65;;;10.10;99.90;;;;;;4968762;28;20046;-73
2023/12/29 07:03:45;;;;;;;8.45;0.98;;;10.10;99.90;;;;;;4984407;28;20042;-73
2023/12/29 07:06:11;;;;;;;12.93;1.65;;;10.10;99.90;;;;;;4970717;28;20145;-72
2023/12/29 07:08:37;;;;;;;2.95;0.63;;;10.20;99.90;;;;;;4968084;28;20050;-73
2023/12/29 07:11:03;;;;;;;7.95;0.65;;;10.10;99.90;;;;;;4985496;28;20038;-73
2023/12/29 07:13:29;;;;;;;4.15;0.88;;;10.20;99.90;;;;;;4980263;28;20487;-73
2023/12/29 07:15:54;;;;;;;6.47;1.05;;;10.10;99.90;;;;;;4984983;28;20038;-73
2023/12/29 07:18:20;;;;;;;3.40;0.52;;;10.10;99.90;;;;;;4984866;28;20053;-75
2023/12/29 07:20:46;;;;;;;2.10;0.40;;;10.00;99.90;;;;;;4984486;28;20072;-74
2023/12/29 07:23:12;;;;;;;7.43;0.68;;;10.00;99.90;;;;;;4986772;28;20406;-73
2023/12/29 07:25:37;;;;;;;11.60;1.30;;;9.90;99.90;;;;;;4983888;28;20038;-74
2023/12/29 07:28:03;;;;;;;2.30;0.63;;;9.90;99.90;;;;;;4986410;28;20112;-74
2023/12/29 07:30:29;;;;;;;11.80;1.38;;;9.90;99.90;;;;;;4981966;28;20046;-73
2023/12/29 07:32:55;;;;;;;5.55;0.28;;;9.80;99.90;;;;;;4974841;28;20430;-73
2023/12/29 07:35:21;;;;;;;6.97;0.75;;;9.80;99.90;;;;;;4982022;28;20031;-72
2023/12/29 07:37:47;;;;;;;1.85;0.60;;;9.80;99.90;;;;;;4983619;28;20034;-73
2023/12/29 07:40:13;;;;;;;0.80;0.65;;;9.80;99.90;;;;;;4984306;28;20041;-73
2023/12/29 07:42:40;;;;;;;3.75;0.73;;;9.80;99.90;;;;;;4988995;28;20173;-73
2023/12/29 07:45:06;;;;;;;5.15;1.02;;;9.80;99.90;;;;;;4990054;28;20046;-73
2023/12/29 07:47:32;;;;;;;6.18;0.70;;;9.80;99.90;;;;;;4977280;28;20205;-73
2023/12/29 07:49:58;;;;;;;6.47;0.70;;;9.80;99.90;;;;;;4989966;28;20133;-72
2023/12/29 07:52:24;;;;;;;2.92;0.30;;;9.80;99.90;;;;;;4990354;28;20058;-73
2023/12/29 07:54:49;;;;;;;5.60;0.57;;;9.90;99.90;;;;;;4989123;28;20042;-73
2023/12/29 07:57:15;;;;;;;1.88;0.68;;;9.90;99.90;;;;;;4984616;28;20046;-73
2023/12/29 07:59:41;;;;;;;2.30;1.15;;;9.90;99.90;;;;;;4991024;28;20045;-72
2023/12/29 08:02:07;;;;;;;5.15;1.05;;;9.90;99.90;;;;;;4984330;28;20046;-72
2023/12/29 08:04:33;;;;;;;1.08;0.43;;;9.90;99.90;;;;;;4990048;28;20050;-72
2023/12/29 08:06:58;;;;;;;2.13;0.68;;;9.90;99.90;;;;;;4983820;28;20084;-71
2023/12/29 08:09:25;;;;;;;1.80;0.40;;;9.90;99.90;;;;;;4984347;28;20425;-71
2023/12/29 08:11:51;;;;;;;2.88;1.75;;;9.90;99.90;;;;;;4986551;28;20038;-71
2023/12/29 08:14:17;;;;;;;0.47;0.30;;;9.90;99.90;;;;;;4973862;28;20490;-71
2023/12/29 08:16:42;;;;;;;10.73;1.35;;;10.00;99.90;;;;;;4985829;28;20463;-71
2023/12/29 08:19:09;;;;;;;1.90;0.50;;;10.00;99.90;;;;;;4981435;28;20038;-72
2023/12/29 08:21:36;;;;;;;5.68;0.85;;;10.10;99.90;;;;;;4985320;28;20051;-71
2023/12/29 08:24:02;;;;;;;5.10;0.95;;;10.00;99.90;;;;;;4987959;28;20516;-71
2023/12/29 08:26:27;;;;;;;2.03;0.75;;;10.10;99.90;;;;;;4969587;28;20129;-71
2023/12/29 08:28:53;;;;;;;2.42;0.63;;;10.10;99.90;;;;;;4986477;28;20112;-71
2023/12/29 08:31:19;;;;;;;9.65;1.00;;;10.10;99.90;;;;;;4990251;28;20149;-71
2023/12/29 08:33:45;;;;;;;4.32;0.50;;;10.20;99.90;;;;;;4986117;28;20137;-71
2023/12/29 08:36:17;;;;;;;1.35;0.30;;;10.20;99.90;;;;;;4985466;28;20042;-72
2023/12/29 08:38:43;;;;;;;1.70;0.43;;;10.20;99.90;;;;;;4966944;28;20042;-72
2023/12/29 08:41:09;;;;;;;6.70;1.00;;;10.20;99.90;;;;;;4989534;28;20046;-70
2023/12/29 08:43:36;;;;;;;12.95;1.10;;;10.20;99.90;;;;;;4982891;28;20046;-71
2023/12/29 08:46:02;;;;;;;9.13;0.93;;;10.30;99.90;;;;;;4990272;28;20133;-72
2023/12/29 08:48:28;;;;;;;7.85;1.33;;;10.20;99.90;;;;;;4988515;28;20068;-72
2023/12/29 08:50:53;;;;;;;3.45;0.50;;;10.20;99.90;;;;;;4988060;28;20410;-72
2023/12/29 08:53:19;;;;;;;4.43;0.57;;;10.20;99.90;;;;;;4985910;28;20047;-80
2023/12/29 08:55:45;;;;;;;2.55;0.75;;;10.20;99.90;;;;;;4997904;28;20070;-82
2023/12/29 08:58:12;;;;;;;1.55;0.10;;;10.10;99.90;;;;;;4992332;28;20046;-81
2023/12/29 09:00:37;;;;;;;5.43;0.40;;;10.00;99.90;;;;;;4973124;28;20053;-79
2023/12/29 09:03:03;;;;;;;1.50;0.50;;;9.90;99.90;;;;;;4986777;28;20053;-78
2023/12/29 09:05:29;;;;;;;12.45;1.17;;;9.80;99.90;;;;;;4972901;28;20417;-78
2023/12/29 09:07:55;;;;;;;1.15;0.40;;;9.80;99.90;;;;;;4989616;28;20068;-76
2023/12/29 09:10:22;;;;;;;2.45;0.40;;;9.80;99.90;;;;;;4982291;28;20121;-79
2023/12/29 09:12:49;;;;;;;12.40;1.13;;;9.90;99.90;;;;;;4988583;28;20085;-79
2023/12/29 09:15:15;;;;;;;3.10;0.38;;;9.80;99.90;;;;;;4969704;28;20125;-79
2023/12/29 09:17:40;;;;;;;3.58;0.43;;;9.80;99.90;;;;;;4985607;28;20126;-79
2023/12/29 09:20:07;;;;;;;2.80;0.63;;;9.90;99.90;;;;;;4971722;28;20046;-78
2023/12/29 09:22:33;;;;;;;0.88;0.50;;;9.80;99.90;;;;;;4988146;28;20062;-78
2023/12/29 09:24:59;;;;;;;3.20;0.90;;;9.80;99.90;;;;;;4988049;28;20137;-77
2023/12/29 09:27:25;;;;;;;1.23;0.40;;;9.90;99.90;;;;;;4986764;28;20125;-78
2023/12/29 09:29:51;;;;;;;0.95;0.45;;;9.90;99.90;;;;;;4986585;28;20045;-76
2023/12/29 09:32:16;;;;;;;1.42;0.57;;;9.90;99.90;;;;;;4989498;28;20058;-77
2023/12/29 09:34:42;;;;;;;0.82;0.15;;;9.90;99.90;;;;;;4992083;28;20089;-75
2023/12/29 09:37:09;;;;;;;1.02;0.50;;;9.90;99.90;;;;;;4991827;28;20038;-76
2023/12/29 09:39:34;;;;;;;4.57;0.43;;;9.90;99.90;;;;;;4988173;28;20054;-75
2023/12/29 09:42:03;;;;;;;6.25;0.60;;;9.90;99.90;;;;;;4993356;28;20145;-75
2023/12/29 09:44:31;;;;;;;0.20;0.20;;;9.90;99.90;;;;;;4979559;28;20042;-75
2023/12/29 09:47:01;;;;;;;0.73;0.15;;;10.00;99.90;;;;;;4973798;28;20550;-75
2023/12/29 09:49:37;;;;;;;0.35;0.10;;;10.00;99.90;;;;;;4992302;28;20145;-75
2023/12/29 09:52:03;;;;;;;3.90;0.30;;;10.00;99.90;;;;;;4985203;28;20050;-74
2023/12/29 09:54:30;;;;;;;1.65;0.75;;;10.10;99.90;;;;;;4991848;28;20134;-74
2023/12/29 09:56:57;;;;;;;6.03;0.73;;;10.10;99.90;;;;;;4990523;28;20054;-75
2023/12/29 09:59:25;;;;;;;1.27;0.32;;;10.10;99.90;;;;;;4977025;28;20456;-74
2023/12/29 10:01:52;;;;;;;1.60;0.13;;;10.10;99.90;;;;;;4991943;28;20042;-75
2023/12/29 10:04:18;;;;;;;2.53;0.80;;;10.10;99.90;;;;;;4991581;28;20773;-74
2023/12/29 10:06:46;;;;;;;3.25;0.28;;;10.10;99.90;;;;;;4987760;28;20050;-74
2023/12/29 10:09:14;;;;;;;5.00;1.25;;;10.10;99.90;;;;;;4991288;28;20058;-73
2023/12/29 10:11:42;;;;;;;3.42;0.85;;;10.10;99.90;;;;;;4988024;28;20042;-74
2023/12/29 10:14:24;;;;;;;4.40;0.30;;;10.10;99.90;;;;;;4991454;28;20042;-74
2023/12/29 10:17:03;;;;;;;7.68;1.00;;;10.10;99.90;;;;;;4986584;28;20352;-73
2023/12/29 10:19:41;;;;;;;0.73;0.40;;;10.10;99.90;;;;;;4990289;28;20046;-73
2023/12/29 10:22:26;;;;;;;2.20;0.47;;;10.10;99.90;;;;;;4985984;28;20042;-71
2023/12/29 10:24:52;;;;;;;1.38;0.73;;;10.20;99.90;;;;;;5006050;28;20458;-71
2023/12/29 10:27:18;;;;;;;1.33;0.30;;;10.20;99.90;;;;;;4985970;28;20105;-71
2023/12/29 10:29:43;;;;;;;8.80;0.60;;;10.20;99.90;;;;;;4987562;28;20042;-71
2023/12/29 10:32:09;;;;;;;0.38;0.38;;;10.10;99.90;;;;;;4986049;28;20046;-71
2023/12/29 10:34:35;;;;;;;2.78;0.75;;;10.10;99.90;;;;;;4987840;28;20130;-70
2023/12/29 10:37:09;;;;;;;4.68;1.40;;;10.20;99.90;;;;;;4985846;28;20046;-70
2023/12/29 10:39:37;;;;;;;0.25;0.10;;;10.20;99.90;;;;;;4988917;28;20105;-70
2023/12/29 10:42:08;;;;;;;0.52;0.30;;;10.20;99.90;;;;;;4985139;28;20065;-70
2023/12/29 10:44:34;;;;;;;0.00;0.00;;;10.30;99.90;;;;;;4985217;28;20053;-70
2023/12/29 10:47:10;;;;;;;3.60;0.57;;;10.20;99.90;;;;;;4986637;28;20050;-70
2023/12/29 10:49:37;;;;;;;0.77;0.40;;;10.20;99.90;;;;;;4980082;28;20410;-70
2023/12/29 10:52:14;;;;;;;1.77;0.77;;;10.10;99.90;;;;;;4970900;28;20074;-70
2023/12/29 10:54:42;;;;;;;2.00;0.40;;;10.10;99.90;;;;;;4982588;28;20043;-70
2023/12/29 10:57:10;;;;;;;1.00;0.15;;;10.10;99.90;;;;;;4986868;28;20506;-70
2023/12/29 10:59:36;;;;;;;1.83;0.20;;;10.10;99.90;;;;;;4982875;28;20043;-70
2023/12/29 11:02:03;;;;;;;0.85;0.13;;;10.00;99.90;;;;;;4969549;28;20137;-70
2023/12/29 11:04:29;;;;;;;1.27;0.10;;;10.00;99.90;;;;;;4966339;28;20062;-70
2023/12/29 11:06:55;;;;;;;2.72;0.30;;;10.00;99.90;;;;;;4969777;28;20423;-70
2023/12/29 11:09:29;;;;;;;1.80;0.30;;;10.00;99.90;;;;;;4967476;28;20046;-70
2023/12/29 11:12:02;;;;;;;1.38;0.32;;;10.10;99.90;;;;;;4983139;28;20125;-69
2023/12/29 11:14:28;;;;;;;2.53;0.20;;;10.10;99.90;;;;;;4982494;28;20442;-70
2023/12/29 11:16:55;;;;;;;0.40;0.32;;;10.20;99.90;;;;;;4986736;28;20460;-70
2023/12/29 11:19:21;;;;;;;7.70;0.60;;;10.20;99.90;;;;;;4979043;28;20458;-70
2023/12/29 11:21:52;;;;;;;6.82;0.50;;;10.20;99.90;;;;;;4983494;28;20487;-70
2023/12/29 11:24:19;;;;;;;2.33;0.20;;;10.20;99.90;;;;;;4984626;28;20046;-70
2023/12/29 11:26:44;;;;;;;0.52;0.00;;;10.30;99.90;;;;;;4979469;28;20050;-70
2023/12/29 11:29:11;;;;;;;0.32;0.20;;;10.20;99.90;;;;;;4986282;28;20383;-70
2023/12/29 11:31:39;;;;;;;1.35;0.45;;;10.30;99.90;;;;;;4983115;28;20038;-70
2023/12/29 11:34:35;;;;;;;2.35;0.22;;;10.30;99.90;;;;;;4988745;28;20046;-70
2023/12/29 11:37:43;;;;;;;1.90;0.50;;;10.30;99.90;;;;;;4980912;28;20448;-70
2023/12/29 11:40:21;;;;;;;0.68;0.30;;;10.40;99.90;;;;;;4984973;28;20407;-70
2023/12/29 11:42:52;;;;;;;1.25;0.15;;;10.40;99.90;;;;;;4985333;28;20122;-71
2023/12/29 11:45:34;;;;;;;2.75;0.47;;;10.40;99.90;;;;;;4984026;28;20084;-70
2023/12/29 11:48:02;;;;;;;5.95;0.50;;;10.40;99.90;;;;;;4985610;28;20042;-70
2023/12/29 11:50:42;;;;;;;4.70;0.68;;;10.40;99.90;;;;;;4985407;28;20054;-71
2023/12/29 11:53:59;;;;;;;2.45;0.40;;;10.30;99.90;;;;;;4983268;28;20082;-71
2023/12/29 11:56:30;;;;;;;3.00;0.43;;;10.30;99.90;;;;;;4985357;28;20463;-70
2023/12/29 11:58:55;;;;;;;0.08;0.08;;;10.30;99.90;;;;;;4961176;28;20070;-71
2023/12/29 12:01:37;;;;;;;5.03;0.80;;;10.30;99.90;;;;;;4984488;28;20140;-71
2023/12/29 12:04:03;;;;;;;3.28;0.50;;;10.30;99.90;;;;;;4983368;28;20039;-71
2023/12/29 12:06:41;;;;;;;3.38;0.60;;;10.30;99.90;;;;;;4982041;28;20038;-71
2023/12/29 12:09:36;;;;;;;4.10;0.82;;;10.30;99.90;;;;;;4986101;28;20042;-71
2023/12/29 12:12:03;;;;;;;2.70;0.35;;;10.30;99.90;;;;;;4969525;28;20086;-71
2023/12/29 12:14:52;;;;;;;3.97;0.55;;;10.30;99.90;;;;;;4984080;28;20065;-71
2023/12/29 12:17:32;;;;;;;0.65;0.65;;;10.30;99.90;;;;;;4982238;28;20129;-71
2023/12/29 12:20:02;;;;;;;0.30;0.30;;;10.30;99.90;;;;;;4974582;28;20049;-65
2023/12/29 12:22:31;;;;;;;4.05;0.55;;;10.30;99.90;;;;;;4987429;28;20046;-67
2023/12/29 12:25:18;;;;;;;4.13;1.02;;;10.40;99.90;;;;;;4986216;28;20042;-73
2023/12/29 12:27:43;;;;;;;2.78;0.10;;;10.40;99.90;;;;;;4987092;28;20042;-72
2023/12/29 12:30:10;;;;;;;2.85;0.25;;;10.40;99.90;;;;;;4989919;28;20116;-72
2023/12/29 12:32:35;;;;;;;3.17;1.20;;;10.40;99.90;;;;;;4988319;28;20046;-72
2023/12/29 12:35:01;;;;;;;3.40;1.05;;;10.40;99.90;;;;;;4987088;28;20046;-68
2023/12/29 12:37:29;;;;;;;5.68;0.88;;;10.40;99.90;;;;;;4988455;28;20518;-71
2023/12/29 12:39:55;;;;;;;2.78;0.15;;;10.40;99.90;;;;;;4985399;28;20133;-71
2023/12/29 12:42:22;;;;;;;2.97;0.40;;;10.40;99.90;;;;;;4987353;28;20045;-71
2023/12/29 12:45:06;;;;;;;3.67;0.40;;;10.40;99.90;;;;;;4973139;28;20042;-71
2023/12/29 12:47:42;;;;;;;0.37;0.10;;;10.30;99.90;;;;;;4985859;28;20694;-72
2023/12/29 12:50:09;;;;;;;3.50;0.90;;;10.40;99.90;;;;;;4988802;28;20045;-71